createdAt,value
2023-01-09T00:04:59.859Z,2.35
2023-01-09T00:10:02.648Z,2.30
2023-01-09T00:15:06.737Z,2.15
2023-01-09T00:20:12.286Z,2.55
2023-01-09T00:25:15.125Z,2.42
2023-01-09T00:30:18.168Z,3.10
2023-01-09T00:35:25.251Z,3.40
2023-01-09T00:40:28.082Z,2.78
2023-01-09T00:45:31.374Z,2.80
2023-01-09T00:50:36.684Z,2.90
2023-01-09T00:55:41.326Z,3.25
2023-01-09T01:00:44.263Z,3.60
2023-01-09T01:06:05.889Z,2.70
2023-01-09T01:11:11.138Z,2.60
2023-01-09T01:16:14.588Z,2.70
2023-01-09T01:21:19.025Z,1.92
2023-01-09T01:26:21.787Z,2.42
2023-01-09T01:31:24.592Z,2.03
2023-01-09T01:36:28.715Z,1.85
2023-01-09T01:41:31.579Z,1.60
2023-01-09T01:46:35.517Z,1.60
2023-01-09T01:51:42.543Z,1.38
2023-01-09T01:56:47.875Z,1.00
2023-01-09T02:01:54.487Z,0.75
2023-01-09T02:07:01.652Z,0.70
2023-01-09T02:12:17.462Z,0.40
2023-01-09T02:17:32.270Z,0.40
2023-01-09T02:22:43.571Z,0.40
2023-01-09T02:28:20.560Z,0.20
2023-01-09T02:33:37.780Z,0.38
2023-01-09T02:38:49.225Z,0.35
2023-01-09T02:44:11.708Z,0.73
2023-01-09T02:49:18.122Z,0.52
2023-01-09T02:54:38.596Z,0.50
2023-01-09T02:59:57.641Z,0.50
2023-01-09T03:05:10.682Z,0.30
2023-01-09T03:10:18.867Z,0.30
2023-01-09T03:15:25.603Z,0.68
2023-01-09T03:20:31.388Z,0.38
2023-01-09T03:25:34.930Z,0.30
2023-01-09T03:30:37.914Z,0.30
2023-01-09T03:35:42.066Z,0.30
2023-01-09T03:40:44.968Z,0.28
2023-01-09T03:45:47.767Z,0.32
2023-01-09T03:50:52.641Z,0.35
2023-01-09T03:55:57.406Z,0.40
2023-01-09T04:01:02.150Z,0.40
2023-01-09T04:06:06.919Z,0.60
2023-01-09T04:11:09.695Z,1.48
2023-01-09T04:16:12.543Z,1.80
2023-01-09T04:21:16.691Z,1.58
2023-01-09T04:26:19.493Z,2.88
2023-01-09T04:31:22.276Z,3.15
2023-01-09T04:36:26.457Z,3.63
2023-01-09T04:41:46.765Z,4.63
2023-01-09T04:46:50.187Z,4.63
2023-01-09T04:51:54.656Z,5.22
2023-01-09T04:56:57.405Z,6.38
2023-01-09T05:02:01.284Z,4.78
2023-01-09T05:07:05.608Z,5.53
2023-01-09T05:12:08.655Z,5.78
2023-01-09T05:17:11.356Z,7.53
2023-01-09T05:22:15.565Z,5.97
2023-01-09T05:27:18.350Z,6.68
2023-01-09T05:32:21.142Z,7.45
2023-01-09T05:37:25.248Z,8.35
2023-01-09T05:42:28.072Z,8.43
2023-01-09T05:47:30.857Z,9.00
2023-01-09T05:52:35.021Z,7.70
2023-01-09T05:57:37.763Z,9.30
2023-01-09T06:02:40.674Z,10.38
2023-01-09T06:07:44.880Z,11.63
2023-01-09T06:12:51.429Z,7.40
2023-01-09T06:17:54.313Z,11.38
2023-01-09T06:22:58.450Z,12.30
2023-01-09T06:28:01.211Z,12.75
2023-01-09T06:33:03.958Z,10.75
2023-01-09T06:38:08.044Z,9.73
2023-01-09T06:43:10.827Z,9.68
2023-01-09T06:48:13.619Z,9.48
2023-01-09T06:53:17.725Z,8.63
2023-01-09T06:58:20.722Z,7.07
2023-01-09T07:03:23.524Z,7.32
2023-01-09T07:08:27.626Z,7.55
2023-01-09T07:13:30.402Z,7.78
2023-01-09T07:18:33.188Z,7.22
2023-01-09T07:23:37.376Z,8.02
2023-01-09T07:28:40.136Z,5.85
2023-01-09T07:33:42.935Z,5.50
2023-01-09T07:38:47.194Z,4.57
2023-01-09T07:43:49.941Z,5.15
2023-01-09T07:48:52.779Z,3.80
2023-01-09T07:53:56.926Z,3.15
2023-01-09T07:58:59.621Z,3.25
2023-01-09T08:04:02.370Z,3.22
2023-01-09T08:09:06.502Z,3.78
2023-01-09T08:14:09.299Z,4.07
2023-01-09T08:19:12.139Z,6.25
2023-01-09T08:24:16.380Z,5.45
2023-01-09T08:29:19.176Z,3.95
2023-01-09T08:34:22.069Z,4.13
2023-01-09T08:39:26.256Z,3.88
2023-01-09T08:44:46.689Z,3.35
2023-01-09T08:49:49.472Z,3.53
2023-01-09T08:54:53.604Z,2.88
2023-01-09T08:59:56.466Z,2.92
2023-01-09T09:04:59.384Z,2.80
2023-01-09T09:10:03.539Z,2.00
2023-01-09T09:15:23.419Z,2.35
2023-01-09T09:20:28.871Z,2.95
2023-01-09T09:25:33.406Z,2.35
2023-01-09T09:30:36.367Z,1.70
2023-01-09T09:35:39.146Z,2.00
2023-01-09T09:41:04.981Z,1.73
2023-01-09T09:46:16.194Z,1.33
2023-01-09T09:51:50.043Z,1.40
2023-01-09T09:56:57.700Z,1.35
2023-01-09T10:02:03.534Z,1.23
2023-01-09T10:07:09.776Z,1.02
2023-01-09T10:12:28.087Z,1.00
2023-01-09T10:17:50.964Z,0.77
2023-01-09T10:28:19.687Z,1.08
2023-01-09T10:33:37.845Z,0.88
2023-01-09T10:38:44.272Z,0.60
2023-01-09T10:43:54.294Z,0.80
2023-01-09T10:49:01.209Z,0.68
2023-01-09T10:54:12.207Z,0.70
2023-01-09T10:59:16.426Z,0.95
2023-01-09T11:04:24.731Z,0.57
2023-01-09T11:09:27.601Z,0.90
2023-01-09T11:14:32.183Z,0.80
2023-01-09T11:19:35.009Z,1.27
2023-01-09T11:24:37.805Z,0.65
2023-01-09T11:29:42.531Z,0.98
2023-01-09T11:34:47.091Z,0.88
2023-01-09T11:39:49.932Z,0.88
2023-01-09T11:45:01.554Z,0.60
2023-01-09T11:50:18.713Z,0.70
2023-01-09T11:55:22.560Z,1.70
2023-01-09T12:00:31.175Z,0.77
2023-01-09T12:05:45.040Z,0.90
2023-01-09T12:11:10.268Z,1.17
2023-01-09T12:16:25.334Z,1.05
2023-01-09T12:21:35.433Z,1.15
2023-01-09T12:26:50.371Z,0.80
2023-01-09T12:32:26.406Z,1.40
2023-01-09T12:37:57.470Z,1.23
2023-01-09T12:43:09.462Z,1.77
2023-01-09T12:48:27.584Z,2.25
2023-01-09T12:53:35.209Z,2.75
2023-01-09T12:58:44.544Z,1.90
2023-01-09T13:03:56.061Z,2.63
2023-01-09T13:09:14.346Z,2.38
2023-01-09T13:14:23.105Z,2.10
2023-01-09T13:19:32.474Z,2.13
2023-01-09T13:24:40.932Z,1.65
2023-01-09T13:29:46.216Z,1.83
2023-01-09T13:34:54.453Z,1.92
2023-01-09T13:39:59.485Z,2.17
2023-01-09T13:45:12.587Z,2.63
2023-01-09T13:50:28.367Z,1.83
2023-01-09T13:55:37.121Z,2.10
2023-01-09T14:00:55.313Z,2.03
2023-01-09T14:06:17.526Z,1.73
2023-01-09T14:11:23.311Z,1.50
2023-01-09T14:16:27.579Z,2.38
2023-01-09T14:21:46.672Z,1.40
2023-01-09T14:26:55.252Z,2.08
2023-01-09T14:32:33.927Z,0.85
2023-01-09T14:37:40.905Z,1.58
2023-01-09T14:42:47.490Z,1.58
2023-01-09T14:47:56.421Z,2.70
2023-01-09T14:53:05.579Z,2.58
2023-01-09T14:58:12.306Z,2.72
2023-01-09T15:03:15.302Z,2.63
2023-01-09T15:08:23.406Z,3.38
2023-01-09T15:13:36.255Z,2.80
2023-01-09T15:18:43.914Z,3.20
2023-01-09T15:23:48.114Z,3.72
2023-01-09T15:28:53.593Z,3.45
2023-01-09T15:33:56.652Z,3.97
2023-01-09T15:39:01.185Z,4.25
2023-01-09T15:44:06.070Z,3.88
2023-01-09T15:49:12.342Z,3.47
2023-01-09T15:54:18.574Z,4.03
2023-01-09T15:59:27.916Z,4.70
2023-01-09T16:04:30.739Z,3.42
2023-01-09T16:09:37.793Z,3.50
2023-01-09T16:14:45.662Z,2.55
2023-01-09T16:19:50.035Z,4.03
2023-01-09T16:24:55.775Z,3.80
2023-01-09T16:29:59.732Z,4.57
2023-01-09T16:35:06.075Z,7.10
2023-01-09T16:40:32.141Z,7.05
2023-01-09T16:45:37.433Z,6.70
2023-01-09T16:50:40.810Z,7.40
2023-01-09T16:55:45.436Z,5.55
2023-01-09T17:00:48.868Z,8.00
2023-01-09T17:05:53.933Z,9.07
2023-01-09T17:10:58.415Z,9.05
2023-01-09T17:16:01.385Z,7.47
2023-01-09T17:21:04.253Z,6.50
2023-01-09T17:26:36.667Z,4.47
2023-01-09T17:31:39.547Z,5.13
2023-01-09T17:36:42.433Z,5.68
2023-01-09T17:41:46.570Z,3.30
2023-01-09T17:46:49.381Z,3.47
2023-01-09T17:51:52.179Z,3.00
2023-01-09T17:56:56.423Z,3.70
2023-01-09T18:01:59.266Z,2.90
2023-01-09T18:07:02.037Z,2.95
2023-01-09T18:12:06.690Z,2.75
2023-01-09T18:17:13.016Z,2.63
2023-01-09T18:22:15.741Z,3.38
2023-01-09T18:27:19.941Z,2.80
2023-01-09T18:32:22.758Z,3.40
2023-01-09T18:37:25.587Z,4.40
2023-01-09T18:42:29.641Z,4.82
2023-01-09T18:47:32.419Z,4.72
2023-01-09T18:52:35.217Z,4.90
2023-01-09T18:57:39.501Z,4.60
2023-01-09T19:02:42.340Z,6.60
2023-01-09T19:07:45.106Z,6.22
2023-01-09T19:12:49.242Z,6.68
2023-01-09T19:17:52.064Z,5.25
2023-01-09T19:22:56.752Z,5.15
2023-01-09T19:28:01.176Z,7.82
2023-01-09T19:33:03.944Z,8.75
2023-01-09T19:38:06.946Z,10.23
2023-01-09T19:43:11.117Z,9.50
2023-01-09T19:48:16.753Z,10.10
2023-01-09T19:53:19.523Z,11.70
2023-01-09T19:58:23.660Z,9.27
2023-01-09T20:03:26.614Z,8.57
2023-01-09T20:08:29.370Z,11.57
2023-01-09T20:13:33.727Z,8.13
2023-01-09T20:18:36.636Z,8.27
2023-01-09T20:23:39.390Z,9.10
2023-01-09T20:28:43.772Z,7.90
2023-01-09T20:33:47.706Z,12.05
2023-01-09T20:38:50.719Z,11.05
2023-01-09T20:43:56.706Z,10.23
2023-01-09T20:49:03.011Z,7.75
2023-01-09T20:54:14.997Z,9.05
2023-01-09T20:59:21.996Z,9.10
2023-01-09T21:04:24.855Z,8.70
2023-01-09T21:09:29.142Z,7.18
2023-01-09T21:14:33.311Z,9.40
2023-01-09T21:19:41.904Z,9.13
2023-01-09T21:24:44.754Z,9.23
2023-01-09T21:29:48.855Z,7.95
2023-01-09T21:34:51.627Z,11.15
2023-01-09T21:39:54.461Z,9.10
2023-01-09T21:45:16.162Z,9.38
2023-01-09T21:50:19.046Z,12.05
2023-01-09T21:55:21.799Z,8.80
2023-01-09T22:00:27.832Z,10.70
2023-01-09T22:05:30.564Z,11.77
2023-01-09T22:10:33.315Z,7.78
2023-01-09T22:15:37.517Z,9.13
2023-01-09T22:20:40.463Z,7.43
2023-01-09T22:25:43.306Z,8.32
2023-01-09T22:30:47.678Z,6.43
2023-01-09T22:35:50.440Z,10.35
2023-01-09T22:40:53.154Z,9.85
2023-01-09T22:46:01.828Z,10.38
2023-01-09T22:51:06.596Z,10.90
2023-01-09T22:56:13.006Z,10.32
2023-01-09T23:01:17.080Z,12.60
2023-01-09T23:06:21.570Z,10.07
2023-01-09T23:11:44.550Z,12.60
2023-01-09T23:16:48.684Z,10.43
2023-01-09T23:21:51.455Z,12.15
2023-01-09T23:26:54.917Z,9.90
2023-01-09T23:31:59.109Z,10.80
2023-01-09T23:37:01.837Z,9.98
2023-01-09T23:42:22.862Z,9.23
2023-01-09T23:47:26.910Z,9.32
2023-01-09T23:52:29.621Z,7.90
2023-01-09T23:57:32.369Z,6.05
